Overview Statistics Trail Chart Weather Telemetry Raw packets
 

This is the latest recevied weather packets stored in our database for station/object WA1NHP. If no packets are shown the sender has not sent any weather packets the latest 10 day(s).

<< 44 45 46 47 48 49 50 >>
Time Temp. Humidity Pressure Rain* Wind** Luminosity Snow
1787947443 25.56° C 69% 1023.9 hPa 0 mm - 540 W/m² -
1787946844 25.56° C 72% 1023.9 hPa 0 mm - 717 W/m² -
1787946244 25° C 74% 1023.9 hPa 0 mm - 213 W/m² -
1787945644 23.89° C 78% 1023.9 hPa 0 mm - 304 W/m² -
1787945043 23.89° C 73% 1023.9 hPa 0 mm - 200 W/m² -
1787944444 24.44° C 76% 1023.9 hPa 0 mm - 207 W/m² -
1787943844 24.44° C 73% 1023.9 hPa 0 mm - 253 W/m² -
1787943244 23.89° C 75% 1023.9 hPa 0 mm - 236 W/m² -
1787942644 23.33° C 83% 1023.9 hPa 0 mm - 682 W/m² -
1787942044 23.33° C 79% 1023.9 hPa 0 mm - 153 W/m² -
1787941443 23.89° C 77% 1023.9 hPa 0 mm - 63 W/m² -
1787940844 24.44° C 75% 1023.9 hPa 0 mm - 209 W/m² -
1787940244 25° C 79% 1023.9 hPa 0 mm - 881 W/m² -
1787939643 24.44° C 74% 1023.9 hPa 0 mm - 128 W/m² -
1787939043 25° C 81% 1023.9 hPa 0 mm - 1074 W/m² -
1787938443 24.44° C 75% 1023.9 hPa 0 mm - 167 W/m² -
1787937844 23.89° C 76% 1023.9 hPa 0 mm - 213 W/m² -
1787937244 25° C 73% 1023.9 hPa 0 mm - 151 W/m² -
1787936644 25° C 72% 1023.9 hPa 0 mm - 274 W/m² -
1787936044 25° C 75% 1023.9 hPa 0 mm - 923 W/m² -
1787935444 25° C 75% 1023.9 hPa 0 mm - 970 W/m² -
1787934843 25° C 73% 1023.9 hPa 0 mm - 930 W/m² -
1787934244 24.44° C 74% 1023.9 hPa 0 mm - 886 W/m² -
1787933644 23.89° C 78% 1023.9 hPa 0 mm - 875 W/m² -
1787933044 23.33° C 79% 1023.9 hPa 0 mm - 190 W/m² -

* Rain latest hour (hover to see other rain measurements)
** Current wind speed in m/s (hover to see current wind gust speed)